sensor_id;sensor_type;location;lat;lon;timestamp;pressure;altitude;pressure_sealevel;temperature;humidity
22047;BME280;11187;49.412;20.956;2023-04-12T00:00:10;94300.81;;;4.81;100.00
22047;BME280;11187;49.412;20.956;2023-04-12T00:02:43;94302.50;;;4.79;100.00
22047;BME280;11187;49.412;20.956;2023-04-12T00:05:33;94300.00;;;4.77;100.00
22047;BME280;11187;49.412;20.956;2023-04-12T00:08:06;94300.84;;;4.76;100.00
22047;BME280;11187;49.412;20.956;2023-04-12T00:11:01;94302.56;;;4.77;100.00
22047;BME280;11187;49.412;20.956;2023-04-12T00:13:55;94299.16;;;4.78;100.00
22047;BME280;11187;49.412;20.956;2023-04-12T00:16:28;94292.41;;;4.76;100.00
22047;BME280;11187;49.412;20.956;2023-04-12T00:19:16;94288.19;;;4.76;100.00
22047;BME280;11187;49.412;20.956;2023-04-12T00:21:50;94284.75;;;4.79;100.00
22047;BME280;11187;49.412;20.956;2023-04-12T00:24:39;94282.22;;;4.79;100.00
22047;BME280;11187;49.412;20.956;2023-04-12T00:27:13;94293.19;;;4.84;100.00
22047;BME280;11187;49.412;20.956;2023-04-12T00:30:00;94277.94;;;4.86;100.00
22047;BME280;11187;49.412;20.956;2023-04-12T00:32:34;94287.25;;;4.85;100.00
22047;BME280;11187;49.412;20.956;2023-04-12T00:35:21;94277.94;;;4.86;100.00
22047;BME280;11187;49.412;20.956;2023-04-12T00:37:54;94288.03;;;4.90;100.00
22047;BME280;11187;49.412;20.956;2023-04-12T00:40:42;94273.69;;;4.89;100.00
22047;BME280;11187;49.412;20.956;2023-04-12T00:43:15;94272.84;;;4.89;100.00
22047;BME280;11187;49.412;20.956;2023-04-12T00:46:06;94276.22;;;4.88;100.00
22047;BME280;11187;49.412;20.956;2023-04-12T00:48:39;94276.22;;;4.88;100.00
22047;BME280;11187;49.412;20.956;2023-04-12T00:51:27;94266.91;;;4.88;100.00
22047;BME280;11187;49.412;20.956;2023-04-12T00:54:05;94268.66;;;4.86;100.00
22047;BME280;11187;49.412;20.956;2023-04-12T00:56:52;94270.34;;;4.86;100.00
22047;BME280;11187;49.412;20.956;2023-04-12T00:59:39;94272.06;;;4.82;100.00
22047;BME280;11187;49.412;20.956;2023-04-12T01:02:34;94263.63;;;4.81;100.00
22047;BME280;11187;49.412;20.956;2023-04-12T01:05:11;94266.97;;;4.87;100.00
22047;BME280;11187;49.412;20.956;2023-04-12T01:10:54;94261.84;;;4.91;100.00
22047;BME280;11187;49.412;20.956;2023-04-12T01:14:18;94264.41;;;4.87;100.00
22047;BME280;11187;49.412;20.956;2023-04-12T01:17:18;94258.53;;;4.86;100.00
22047;BME280;11187;49.412;20.956;2023-04-12T01:20:00;94253.44;;;4.86;100.00
22047;BME280;11187;49.412;20.956;2023-04-12T01:23:05;94255.09;;;4.87;100.00
22047;BME280;11187;49.412;20.956;2023-04-12T01:28:36;94255.88;;;4.94;100.00
22047;BME280;11187;49.412;20.956;2023-04-12T01:31:10;94259.25;;;4.96;100.00
22047;BME280;11187;49.412;20.956;2023-04-12T01:34:08;94255.06;;;4.93;100.00
22047;BME280;11187;49.412;20.956;2023-04-12T01:37:02;94254.19;;;4.94;100.00
22047;BME280;11187;49.412;20.956;2023-04-12T01:39:37;94246.56;;;4.94;100.00
22047;BME280;11187;49.412;20.956;2023-04-12T01:42:24;94250.81;;;4.92;100.00
22047;BME280;11187;49.412;20.956;2023-04-12T01:44:57;94258.44;;;4.92;100.00
22047;BME280;11187;49.412;20.956;2023-04-12T01:47:44;94245.75;;;4.95;100.00
22047;BME280;11187;49.412;20.956;2023-04-12T01:50:31;94248.25;;;4.97;100.00
22047;BME280;11187;49.412;20.956;2023-04-12T01:53:24;94244.03;;;4.97;100.00
22047;BME280;11187;49.412;20.956;2023-04-12T01:56:05;94255.88;;;4.94;100.00
22047;BME280;11187;49.412;20.956;2023-04-12T01:58:54;94256.81;;;4.85;100.00
22047;BME280;11187;49.412;20.956;2023-04-12T02:01:28;94244.19;;;4.79;100.00
22047;BME280;11187;49.412;20.956;2023-04-12T02:04:16;94227.34;;;4.73;100.00
22047;BME280;11187;49.412;20.956;2023-04-12T02:06:49;94220.59;;;4.75;100.00
22047;BME280;11187;49.412;20.956;2023-04-12T02:09:37;94220.59;;;4.75;100.00
22047;BME280;11187;49.412;20.956;2023-04-12T02:12:10;94225.66;;;4.74;100.00
22047;BME280;11187;49.412;20.956;2023-04-12T02:15:04;94221.50;;;4.68;100.00
22047;BME280;11187;49.412;20.956;2023-04-12T02:17:39;94218.94;;;4.70;100.00
22047;BME280;11187;49.412;20.956;2023-04-12T02:20:27;94218.09;;;4.69;100.00
22047;BME280;11187;49.412;20.956;2023-04-12T02:23:00;94213.03;;;4.71;100.00
22047;BME280;11187;49.412;20.956;2023-04-12T02:25:54;94218.09;;;4.69;100.00
22047;BME280;11187;49.412;20.956;2023-04-12T02:28:28;94216.44;;;4.68;100.00
22047;BME280;11187;49.412;20.956;2023-04-12T02:31:16;94213.91;;;4.68;100.00
22047;BME280;11187;49.412;20.956;2023-04-12T02:33:50;94222.34;;;4.67;100.00
22047;BME280;11187;49.412;20.956;2023-04-12T02:36:37;94226.59;;;4.67;100.00
22047;BME280;11187;49.412;20.956;2023-04-12T02:39:10;94227.44;;;4.66;100.00
22047;BME280;11187;49.412;20.956;2023-04-12T02:42:05;94223.19;;;4.68;100.00
22047;BME280;11187;49.412;20.956;2023-04-12T02:44:59;94233.34;;;4.66;100.00
22047;BME280;11187;49.412;20.956;2023-04-12T02:47:32;94244.31;;;4.68;100.00
22047;BME280;11187;49.412;20.956;2023-04-12T02:50:20;94243.50;;;4.66;100.00
22047;BME280;11187;49.412;20.956;2023-04-12T02:52:53;94254.50;;;4.62;100.00
22047;BME280;11187;49.412;20.956;2023-04-12T02:55:40;94251.19;;;4.57;100.00
22047;BME280;11187;49.412;20.956;2023-04-12T02:58:13;94250.31;;;4.61;100.00
22047;BME280;11187;49.412;20.956;2023-04-12T03:01:00;94249.50;;;4.57;100.00
22047;BME280;11187;49.412;20.956;2023-04-12T03:03:34;94267.28;;;4.53;100.00
22047;BME280;11187;49.412;20.956;2023-04-12T03:06:20;94254.63;;;4.50;100.00
22047;BME280;11187;49.412;20.956;2023-04-12T03:08:53;94257.97;;;4.55;100.00
22047;BME280;11187;49.412;20.956;2023-04-12T03:11:47;94253.78;;;4.49;100.00
22047;BME280;11187;49.412;20.956;2023-04-12T03:14:41;94254.63;;;4.50;100.00
22047;BME280;11187;49.412;20.956;2023-04-12T03:17:14;94258.00;;;4.49;100.00
22047;BME280;11187;49.412;20.956;2023-04-12T03:20:08;94272.41;;;4.45;100.00
22047;BME280;11187;49.412;20.956;2023-04-12T03:22:41;94255.56;;;4.39;100.00
22047;BME280;11187;49.412;20.956;2023-04-12T03:25:28;94260.59;;;4.43;100.00
22047;BME280;11187;49.412;20.956;2023-04-12T03:28:01;94263.13;;;4.44;100.00
22047;BME280;11187;49.412;20.956;2023-04-12T03:30:48;94273.25;;;4.46;100.00
22047;BME280;11187;49.412;20.956;2023-04-12T03:33:22;94267.34;;;4.45;100.00
22047;BME280;11187;49.412;20.956;2023-04-12T03:36:09;94267.34;;;4.44;100.00
22047;BME280;11187;49.412;20.956;2023-04-12T03:38:42;94271.59;;;4.43;100.00
22047;BME280;11187;49.412;20.956;2023-04-12T03:41:29;94282.56;;;4.42;100.00
22047;BME280;11187;49.412;20.956;2023-04-12T03:44:03;94276.66;;;4.42;100.00
22047;BME280;11187;49.412;20.956;2023-04-12T03:46:49;94266.53;;;4.42;100.00
22047;BME280;11187;49.412;20.956;2023-04-12T03:49:22;94265.66;;;4.44;100.00
22047;BME280;11187;49.412;20.956;2023-04-12T03:52:16;94264.81;;;4.45;100.00
22047;BME280;11187;49.412;20.956;2023-04-12T03:54:49;94269.84;;;4.47;100.00
22047;BME280;11187;49.412;20.956;2023-04-12T03:57:36;94259.75;;;4.44;100.00
22047;BME280;11187;49.412;20.956;2023-04-12T04:00:30;94269.03;;;4.46;100.00
22047;BME280;11187;49.412;20.956;2023-04-12T04:03:24;94259.75;;;4.44;100.00
22047;BME280;11187;49.412;20.956;2023-04-12T04:06:20;94253.81;;;4.46;100.00
22047;BME280;11187;49.412;20.956;2023-04-12T04:09:15;94269.84;;;4.47;100.00
22047;BME280;11187;49.412;20.956;2023-04-12T04:11:49;94260.53;;;4.49;100.00
22047;BME280;11187;49.412;20.956;2023-04-12T04:14:36;94265.63;;;4.49;100.00
22047;BME280;11187;49.412;20.956;2023-04-12T04:17:09;94266.44;;;4.49;100.00
22047;BME280;11187;49.412;20.956;2023-04-12T04:19:56;94269.81;;;4.51;100.00
22047;BME280;11187;49.412;20.956;2023-04-12T04:22:29;94268.97;;;4.52;100.00
22047;BME280;11187;49.412;20.956;2023-04-12T04:25:17;94273.16;;;4.55;100.00
22047;BME280;11187;49.412;20.956;2023-04-12T04:27:51;94272.31;;;4.57;100.00
22047;BME280;11187;49.412;20.956;2023-04-12T04:30:38;94283.31;;;4.52;100.00
22047;BME280;11187;49.412;20.956;2023-04-12T04:33:12;94285.84;;;4.55;100.00
22047;BME280;11187;49.412;20.956;2023-04-12T04:35:59;94270.63;;;4.55;100.00
22047;BME280;11187;49.412;20.956;2023-04-12T04:38:34;94276.50;;;4.58;100.00
22047;BME280;11187;49.412;20.956;2023-04-12T04:41:29;94284.09;;;4.60;100.00
22047;BME280;11187;49.412;20.956;2023-04-12T04:44:24;94290.88;;;4.61;100.00
22047;BME280;11187;49.412;20.956;2023-04-12T04:46:57;94291.66;;;4.63;100.00
22047;BME280;11187;49.412;20.956;2023-04-12T04:49:45;94290.88;;;4.61;100.00
22047;BME280;11187;49.412;20.956;2023-04-12T04:52:19;94283.22;;;4.63;100.00
22047;BME280;11187;49.412;20.956;2023-04-12T04:55:13;94290.84;;;4.64;100.00
22047;BME280;11187;49.412;20.956;2023-04-12T04:58:07;94286.59;;;4.65;100.00
22047;BME280;11187;49.412;20.956;2023-04-12T05:01:01;94298.44;;;4.64;100.00
22047;BME280;11187;49.412;20.956;2023-04-12T05:03:35;94298.44;;;4.66;100.00
22047;BME280;11187;49.412;20.956;2023-04-12T05:06:23;94295.03;;;4.67;100.00
22047;BME280;11187;49.412;20.956;2023-04-12T05:08:56;94295.88;;;4.69;100.00
22047;BME280;11187;49.412;20.956;2023-04-12T05:11:44;94296.66;;;4.74;100.00
22047;BME280;11187;49.412;20.956;2023-04-12T05:14:19;94295.81;;;4.75;100.00
22047;BME280;11187;49.412;20.956;2023-04-12T05:17:24;94299.19;;;4.75;100.00
22047;BME280;11187;49.412;20.956;2023-04-12T05:19:58;94300.03;;;4.76;100.00
22047;BME280;11187;49.412;20.956;2023-04-12T05:22:49;94302.56;;;4.77;100.00
22047;BME280;11187;49.412;20.956;2023-04-12T05:25:23;94305.94;;;4.76;100.00
22047;BME280;11187;49.412;20.956;2023-04-12T05:28:09;94306.78;;;4.75;100.00
22047;BME280;11187;49.412;20.956;2023-04-12T05:30:45;94308.47;;;4.78;100.00
22047;BME280;11187;49.412;20.956;2023-04-12T05:33:32;94308.50;;;4.75;100.00
22047;BME280;11187;49.412;20.956;2023-04-12T05:36:07;94308.47;;;4.78;100.00
22047;BME280;11187;49.412;20.956;2023-04-12T05:39:00;94311.88;;;4.77;100.00
22047;BME280;11187;49.412;20.956;2023-04-12T05:41:54;94312.69;;;4.74;100.00
22047;BME280;11187;49.412;20.956;2023-04-12T05:44:48;94320.34;;;4.71;100.00
22047;BME280;11187;49.412;20.956;2023-04-12T05:47:23;94308.50;;;4.73;100.00
22047;BME280;11187;49.412;20.956;2023-04-12T05:50:09;94312.69;;;4.76;100.00
22047;BME280;11187;49.412;20.956;2023-04-12T05:52:43;94307.66;;;4.73;100.00
22047;BME280;11187;49.412;20.956;2023-04-12T05:55:29;94311.03;;;4.75;100.00
22047;BME280;11187;49.412;20.956;2023-04-12T05:58:03;94308.47;;;4.78;100.00
22047;BME280;11187;49.412;20.956;2023-04-12T06:00:50;94313.56;;;4.75;100.00
22047;BME280;11187;49.412;20.956;2023-04-12T06:03:26;94310.94;;;4.81;100.00
22047;BME280;11187;49.412;20.956;2023-04-12T06:06:19;94309.28;;;4.81;100.00
22047;BME280;11187;49.412;20.956;2023-04-12T06:09:15;94312.69;;;4.76;100.00
22047;BME280;11187;49.412;20.956;2023-04-12T06:11:49;94302.59;;;4.73;100.00
22047;BME280;11187;49.412;20.956;2023-04-12T06:14:42;94308.53;;;4.69;100.00
22047;BME280;11187;49.412;20.956;2023-04-12T06:17:36;94310.19;;;4.73;100.00
22047;BME280;11187;49.412;20.956;2023-04-12T06:20:30;94311.88;;;4.75;100.00
22047;BME280;11187;49.412;20.956;2023-04-12T06:23:03;94316.94;;;4.77;100.00
22047;BME280;11187;49.412;20.956;2023-04-12T06:25:50;94307.63;;;4.74;100.00
22047;BME280;11187;49.412;20.956;2023-04-12T06:28:25;94301.72;;;4.75;100.00
22047;BME280;11187;49.412;20.956;2023-04-12T06:31:11;94304.25;;;4.75;100.00
22047;BME280;11187;49.412;20.956;2023-04-12T06:33:45;94305.91;;;4.78;100.00
22047;BME280;11187;49.412;20.956;2023-04-12T06:36:31;94306.72;;;4.83;100.00
22047;BME280;11187;49.412;20.956;2023-04-12T06:39:04;94308.41;;;4.82;100.00
22047;BME280;11187;49.412;20.956;2023-04-12T06:41:51;94302.47;;;4.84;100.00
22047;BME280;11187;49.412;20.956;2023-04-12T06:44:25;94313.44;;;4.87;100.00
22047;BME280;11187;49.412;20.956;2023-04-12T06:47:12;94315.91;;;4.95;100.00
22047;BME280;11187;49.412;20.956;2023-04-12T06:49:46;94317.56;;;4.99;100.00
22047;BME280;11187;49.412;20.956;2023-04-12T06:52:35;94320.09;;;4.99;100.00
22047;BME280;11187;49.412;20.956;2023-04-12T06:55:09;94325.94;;;5.06;100.00
22047;BME280;11187;49.412;20.956;2023-04-12T06:57:55;94331.00;;;5.07;100.00
22047;BME280;11187;49.412;20.956;2023-04-12T07:00:49;94326.72;;;5.12;100.00
22047;BME280;11187;49.412;20.956;2023-04-12T07:03:43;94330.88;;;5.19;100.00
22047;BME280;11187;49.412;20.956;2023-04-12T07:06:37;94329.09;;;5.28;100.00
22047;BME280;11187;49.412;20.956;2023-04-12T07:09:31;94335.75;;;5.41;100.00
22047;BME280;11187;49.412;20.956;2023-04-12T07:12:25;94341.56;;;5.49;100.00
22047;BME280;11187;49.412;20.956;2023-04-12T07:14:58;94338.91;;;5.58;100.00
22047;BME280;11187;49.412;20.956;2023-04-12T07:17:45;94338.00;;;5.65;100.00
22047;BME280;11187;49.412;20.956;2023-04-12T07:20:19;94343.03;;;5.70;100.00
22047;BME280;11187;49.412;20.956;2023-04-12T07:23:05;94346.47;;;5.63;100.00
22047;BME280;11187;49.412;20.956;2023-04-12T07:25:39;94346.47;;;5.63;100.00
22047;BME280;11187;49.412;20.956;2023-04-12T07:28:25;94340.59;;;5.59;100.00
22047;BME280;11187;49.412;20.956;2023-04-12T07:30:59;94338.91;;;5.58;100.00
22047;BME280;11187;49.412;20.956;2023-04-12T07:33:45;94340.50;;;5.67;100.00
22047;BME280;11187;49.412;20.956;2023-04-12T07:36:19;94340.31;;;5.81;100.00
22047;BME280;11187;49.412;20.956;2023-04-12T07:39:05;94337.66;;;5.90;100.00
22047;BME280;11187;49.412;20.956;2023-04-12T07:41:41;94336.81;;;5.93;100.00
22047;BME280;11187;49.412;20.956;2023-04-12T07:44:28;94337.63;;;5.98;100.00
22047;BME280;11187;49.412;20.956;2023-04-12T07:47:04;94329.03;;;6.06;100.00
22047;BME280;11187;49.412;20.956;2023-04-12T07:49:51;94327.34;;;6.07;100.00
22047;BME280;11187;49.412;20.956;2023-04-12T07:52:25;94332.28;;;6.18;100.00
22047;BME280;11187;49.412;20.956;2023-04-12T07:55:11;94327.88;;;6.27;100.00
22047;BME280;11187;49.412;20.956;2023-04-12T07:57:45;94326.06;;;6.36;100.00
22047;BME280;11187;49.412;20.956;2023-04-12T08:00:41;94327.53;;;6.52;100.00
22047;BME280;11187;49.412;20.956;2023-04-12T08:03:37;94334.28;;;6.53;100.00
22047;BME280;11187;49.412;20.956;2023-04-12T08:06:11;94330.84;;;6.56;100.00
22047;BME280;11187;49.412;20.956;2023-04-12T08:08:57;94326.50;;;6.64;100.00
22047;BME280;11187;49.412;20.956;2023-04-12T08:11:31;94327.16;;;6.75;100.00
22047;BME280;11187;49.412;20.956;2023-04-12T08:14:17;94328.78;;;6.79;100.00
22047;BME280;11187;49.412;20.956;2023-04-12T08:16:51;94329.63;;;6.80;100.00
22047;BME280;11187;49.412;20.956;2023-04-12T08:19:37;94333.13;;;6.73;100.00
22047;BME280;11187;49.412;20.956;2023-04-12T08:22:11;94330.53;;;6.76;100.00
22047;BME280;11187;49.412;20.956;2023-04-12T08:25:05;94335.72;;;6.69;99.72
22047;BME280;11187;49.412;20.956;2023-04-12T08:27:41;94338.31;;;6.66;100.00
22047;BME280;11187;49.412;20.956;2023-04-12T08:30:35;94336.66;;;6.65;100.00
22047;BME280;11187;49.412;20.956;2023-04-12T08:33:29;94341.63;;;6.72;100.00
22047;BME280;11187;49.412;20.956;2023-04-12T08:36:03;94340.69;;;6.77;100.00
22047;BME280;11187;49.412;20.956;2023-04-12T08:38:49;94335.63;;;6.76;100.00
22047;BME280;11187;49.412;20.956;2023-04-12T08:41:24;94335.53;;;6.82;100.00
22047;BME280;11187;49.412;20.956;2023-04-12T08:44:17;94333.81;;;6.84;99.51
22047;BME280;11187;49.412;20.956;2023-04-12T08:47:12;94330.38;;;6.85;99.10
22047;BME280;11187;49.412;20.956;2023-04-12T08:49:46;94334.56;;;6.87;99.32
22047;BME280;11187;49.412;20.956;2023-04-12T08:52:39;94329.25;;;7.01;99.29
22047;BME280;11187;49.412;20.956;2023-04-12T08:55:33;94324.63;;;7.23;98.02
22047;BME280;11187;49.412;20.956;2023-04-12T08:58:28;94324.81;;;7.59;97.05
22047;BME280;11187;49.412;20.956;2023-04-12T09:01:22;94311.81;;;7.71;96.82
22047;BME280;11187;49.412;20.956;2023-04-12T09:03:56;94320.13;;;7.81;97.51
22047;BME280;11187;49.412;20.956;2023-04-12T09:06:43;94319.44;;;7.73;96.49
22047;BME280;11187;49.412;20.956;2023-04-12T09:09:17;94318.34;;;7.85;97.23
22047;BME280;11187;49.412;20.956;2023-04-12T09:12:07;94321.44;;;7.99;96.51
22047;BME280;11187;49.412;20.956;2023-04-12T09:14:41;94324.56;;;8.12;96.89
22047;BME280;11187;49.412;20.956;2023-04-12T09:17:27;94320.88;;;8.25;97.56
22047;BME280;11187;49.412;20.956;2023-04-12T09:23:29;94314.53;;;8.04;93.13
22047;BME280;11187;49.412;20.956;2023-04-12T09:26:27;94308.56;;;8.05;95.12
22047;BME280;11187;49.412;20.956;2023-04-12T09:29:01;94311.81;;;8.12;95.36
22047;BME280;11187;49.412;20.956;2023-04-12T09:32:04;94315.06;;;8.19;93.99
22047;BME280;11187;49.412;20.956;2023-04-12T09:34:38;94308.31;;;8.18;94.71
22047;BME280;11187;49.412;20.956;2023-04-12T09:37:56;94315.09;;;8.17;94.39
22047;BME280;11187;49.412;20.956;2023-04-12T09:40:30;94314.28;;;8.15;94.26
22047;BME280;11187;49.412;20.956;2023-04-12T09:43:39;94312.50;;;8.20;94.33
22047;BME280;11187;49.412;20.956;2023-04-12T09:46:35;94308.09;;;8.27;94.37
22047;BME280;11187;49.412;20.956;2023-04-12T09:52:21;94312.25;;;8.31;94.14
22047;BME280;11187;49.412;20.956;2023-04-12T09:54:57;94315.97;;;8.16;93.85
22047;BME280;11187;49.412;20.956;2023-04-12T09:57:54;94322.19;;;8.04;93.08
22047;BME280;11187;49.412;20.956;2023-04-12T10:00:47;94317.72;;;7.73;91.80
22047;BME280;11187;49.412;20.956;2023-04-12T10:03:41;94313.00;;;7.53;93.67
22047;BME280;11187;49.412;20.956;2023-04-12T10:06:36;94307.34;;;7.41;93.89
22047;BME280;11187;49.412;20.956;2023-04-12T10:09:09;94314.97;;;7.41;95.08
22047;BME280;11187;49.412;20.956;2023-04-12T10:11:57;94323.53;;;7.38;95.50
22047;BME280;11187;49.412;20.956;2023-04-12T10:14:32;94318.53;;;7.32;94.90
22047;BME280;11187;49.412;20.956;2023-04-12T10:17:19;94315.34;;;7.21;94.51
22047;BME280;11187;49.412;20.956;2023-04-12T10:19:52;94316.28;;;7.15;95.71
22047;BME280;11187;49.412;20.956;2023-04-12T10:22:50;94315.31;;;7.22;96.45
22047;BME280;11187;49.412;20.956;2023-04-12T10:25:25;94325.34;;;7.30;97.10
22047;BME280;11187;49.412;20.956;2023-04-12T10:28:20;94323.53;;;7.37;96.54
22047;BME280;11187;49.412;20.956;2023-04-12T10:31:30;94323.59;;;7.34;95.35
22047;BME280;11187;49.412;20.956;2023-04-12T10:34:05;94321.06;;;7.34;96.13
22047;BME280;11187;49.412;20.956;2023-04-12T10:37:00;94316.91;;;7.28;96.46
22047;BME280;11187;49.412;20.956;2023-04-12T10:42:29;94310.06;;;7.31;95.88
22047;BME280;11187;49.412;20.956;2023-04-12T10:45:35;94314.63;;;7.13;93.78
22047;BME280;11187;49.412;20.956;2023-04-12T10:48:39;94308.63;;;7.17;96.42
22047;BME280;11187;49.412;20.956;2023-04-12T10:51:24;94313.44;;;7.30;96.80
22047;BME280;11187;49.412;20.956;2023-04-12T10:56:51;94303.34;;;7.26;94.89
22047;BME280;11187;49.412;20.956;2023-04-12T10:59:52;94305.91;;;7.26;96.16
22047;BME280;11187;49.412;20.956;2023-04-12T11:03:06;94304.97;;;7.30;96.93
22047;BME280;11187;49.412;20.956;2023-04-12T11:06:02;94304.06;;;7.34;96.91
22047;BME280;11187;49.412;20.956;2023-04-12T11:09:18;94294.59;;;7.41;97.43
22047;BME280;11187;49.412;20.956;2023-04-12T11:12:11;94300.28;;;7.53;97.37
22047;BME280;11187;49.412;20.956;2023-04-12T11:15:00;94295.91;;;7.60;97.02
22047;BME280;11187;49.412;20.956;2023-04-12T11:17:36;94304.31;;;7.65;97.50
22047;BME280;11187;49.412;20.956;2023-04-12T11:20:25;94301.56;;;7.74;96.85
22047;BME280;11187;49.412;20.956;2023-04-12T11:22:59;94300.53;;;7.83;97.26
22047;BME280;11187;49.412;20.956;2023-04-12T11:25:50;94304.44;;;8.00;96.54
22047;BME280;11187;49.412;20.956;2023-04-12T11:28:27;94293.84;;;8.18;95.89
22047;BME280;11187;49.412;20.956;2023-04-12T11:31:19;94299.53;;;8.29;94.94
22047;BME280;11187;49.412;20.956;2023-04-12T11:33:53;94290.78;;;8.41;95.52
22047;BME280;11187;49.412;20.956;2023-04-12T11:36:40;94289.88;;;8.44;94.86
22047;BME280;11187;49.412;20.956;2023-04-12T11:39:14;94286.16;;;8.57;93.59
22047;BME280;11187;49.412;20.956;2023-04-12T11:42:00;94279.91;;;8.70;92.36
22047;BME280;11187;49.412;20.956;2023-04-12T11:44:35;94277.38;;;8.69;90.24
22047;BME280;11187;49.412;20.956;2023-04-12T11:47:31;94269.31;;;8.86;92.57
22047;BME280;11187;49.412;20.956;2023-04-12T11:50:29;94279.06;;;8.70;90.14
22047;BME280;11187;49.412;20.956;2023-04-12T11:53:30;94274.75;;;8.72;91.40
22047;BME280;11187;49.412;20.956;2023-04-12T11:56:24;94274.22;;;8.59;87.64
22047;BME280;11187;49.412;20.956;2023-04-12T11:58:59;94272.03;;;8.44;89.98
22047;BME280;11187;49.412;20.956;2023-04-12T12:01:50;94277.31;;;8.34;89.63
22047;BME280;11187;49.412;20.956;2023-04-12T12:04:23;94264.06;;;8.20;90.05
22047;BME280;11187;49.412;20.956;2023-04-12T12:07:12;94261.56;;;8.17;89.81
22047;BME280;11187;49.412;20.956;2023-04-12T12:09:47;94257.22;;;8.22;90.56
22047;BME280;11187;49.412;20.956;2023-04-12T12:12:42;94261.19;;;8.34;91.32
22047;BME280;11187;49.412;20.956;2023-04-12T12:15:36;94253.22;;;8.48;90.18
22047;BME280;11187;49.412;20.956;2023-04-12T12:18:38;94251.47;;;8.50;89.31
22047;BME280;11187;49.412;20.956;2023-04-12T12:21:32;94252.09;;;8.60;89.19
22047;BME280;11187;49.412;20.956;2023-04-12T12:24:06;94244.09;;;8.73;89.91
22047;BME280;11187;49.412;20.956;2023-04-12T12:27:01;94242.91;;;8.87;89.73
22047;BME280;11187;49.412;20.956;2023-04-12T12:29:36;94240.13;;;8.94;87.35
22047;BME280;11187;49.412;20.956;2023-04-12T12:32:34;94239.13;;;9.02;86.67
22047;BME280;11187;49.412;20.956;2023-04-12T12:35:10;94233.69;;;9.14;87.52
22047;BME280;11187;49.412;20.956;2023-04-12T12:37:57;94241.19;;;9.20;86.91
22047;BME280;11187;49.412;20.956;2023-04-12T12:40:32;94241.44;;;9.11;82.61
22047;BME280;11187;49.412;20.956;2023-04-12T12:43:19;94230.09;;;9.19;83.85
22047;BME280;11187;49.412;20.956;2023-04-12T12:45:59;94229.75;;;9.33;86.60
22047;BME280;11187;49.412;20.956;2023-04-12T12:48:40;94221.03;;;9.40;87.31
22047;BME280;11187;49.412;20.956;2023-04-12T12:51:20;94225.88;;;9.50;87.23
22047;BME280;11187;49.412;20.956;2023-04-12T12:54:15;94224.28;;;9.46;84.86
22047;BME280;11187;49.412;20.956;2023-04-12T12:57:19;94217.72;;;9.37;85.92
22047;BME280;11187;49.412;20.956;2023-04-12T12:59:53;94211.53;;;9.44;87.12
22047;BME280;11187;49.412;20.956;2023-04-12T13:02:42;94215.69;;;9.48;86.59
22047;BME280;11187;49.412;20.956;2023-04-12T13:05:17;94208.00;;;9.50;87.29
22047;BME280;11187;49.412;20.956;2023-04-12T13:08:10;94198.72;;;9.47;87.24
22047;BME280;11187;49.412;20.956;2023-04-12T13:10:44;94201.28;;;9.46;86.62
22047;BME280;11187;49.412;20.956;2023-04-12T13:13:37;94194.75;;;9.35;85.05
22047;BME280;11187;49.412;20.956;2023-04-12T13:16:31;94195.69;;;9.33;87.14
22047;BME280;11187;49.412;20.956;2023-04-12T13:19:05;94193.25;;;9.28;86.86
22047;BME280;11187;49.412;20.956;2023-04-12T13:21:58;94182.34;;;9.23;86.29
22047;BME280;11187;49.412;20.956;2023-04-12T13:24:52;94185.88;;;9.19;85.34
22047;BME280;11187;49.412;20.956;2023-04-12T13:27:27;94188.50;;;9.16;86.11
22047;BME280;11187;49.412;20.956;2023-04-12T13:30:14;94179.41;;;9.06;85.14
22047;BME280;11187;49.412;20.956;2023-04-12T13:32:47;94180.31;;;9.05;84.95
22047;BME280;11187;49.412;20.956;2023-04-12T13:35:33;94179.53;;;9.01;84.66
22047;BME280;11187;49.412;20.956;2023-04-12T13:38:07;94171.59;;;9.12;85.49
22047;BME280;11187;49.412;20.956;2023-04-12T13:41:00;94174.72;;;9.22;85.31
22047;BME280;11187;49.412;20.956;2023-04-12T13:43:34;94179.69;;;9.26;84.54
22047;BME280;11187;49.412;20.956;2023-04-12T13:46:27;94178.56;;;9.36;83.44
22047;BME280;11187;49.412;20.956;2023-04-12T13:49:21;94174.91;;;9.45;83.52
22047;BME280;11187;49.412;20.956;2023-04-12T13:52:15;94175.56;;;9.52;83.67
22047;BME280;11187;49.412;20.956;2023-04-12T13:54:49;94172.88;;;9.56;83.36
22047;BME280;11187;49.412;20.956;2023-04-12T13:57:36;94164.28;;;9.59;84.15
22047;BME280;11187;49.412;20.956;2023-04-12T14:00:10;94158.28;;;9.60;83.74
22047;BME280;11187;49.412;20.956;2023-04-12T14:02:58;94158.28;;;9.60;82.66
22047;BME280;11187;49.412;20.956;2023-04-12T14:05:32;94159.25;;;9.56;82.31
22047;BME280;11187;49.412;20.956;2023-04-12T14:08:27;94166.91;;;9.56;82.82
22047;BME280;11187;49.412;20.956;2023-04-12T14:11:24;94165.44;;;9.49;82.28
22047;BME280;11187;49.412;20.956;2023-04-12T14:14:17;94166.47;;;9.43;80.31
22047;BME280;11187;49.412;20.956;2023-04-12T14:17:11;94164.84;;;9.40;80.51
22047;BME280;11187;49.412;20.956;2023-04-12T14:19:45;94170.00;;;9.37;82.50
22047;BME280;11187;49.412;20.956;2023-04-12T14:22:31;94166.75;;;9.32;82.12
22047;BME280;11187;49.412;20.956;2023-04-12T14:25:05;94164.22;;;9.32;83.28
22047;BME280;11187;49.412;20.956;2023-04-12T14:27:52;94172.00;;;9.28;82.38
22047;BME280;11187;49.412;20.956;2023-04-12T14:30:26;94167.81;;;9.25;82.53
22047;BME280;11187;49.412;20.956;2023-04-12T14:33:06;94163.56;;;9.24;82.11
22047;BME280;11187;49.412;20.956;2023-04-12T14:35:45;94163.69;;;9.21;83.93
22047;BME280;11187;49.412;20.956;2023-04-12T14:38:28;94166.31;;;9.18;84.14
22047;BME280;11187;49.412;20.956;2023-04-12T14:41:08;94159.66;;;9.12;84.62
22047;BME280;11187;49.412;20.956;2023-04-12T14:43:41;94166.50;;;9.12;83.93